Latest Weather Observations for Wangaratta

IDV60801

Issued at 10:02 pm EDT Saturday 25 February 2017 (issued every 30 minutes, with the page automatically refreshed every 10 minutes)

About weather observations | Map of weather stations | Latest weather observations for VIC | Other Formats
Station Details ID: 082138 Name: WANGARATTA AERO Lat: -36.42 Lon: 146.31 Height: 152.6 m
Data from the previous 72 hours. | See also: Recent months at Wangaratta
Date/Time
EDT
Temp
°C
App
Temp
°C
Dew
Point
°C
Rel
Hum
%
Delta-T
°C
Wind Press
QNH
hPa
Press
MSL
hPa
Rain since
9am
mm
Dir  Spd
km/h
Gust
km/h
Spd
kts
Gust
kts
25/10:00pm 20.8 19.3 10.6 52 5.6 S 9 - 5 - - 1016.8 -
25/09:30pm 21.9 20.2 9.8 46 6.6 S 9 17 5 9 1017.2 1016.6 0.0
25/09:00pm 21.4 19.9 10.6 50 5.9 S 9 11 5 6 1016.6 1016.0 0.0
25/08:30pm 22.8 21.4 9.6 43 7.2 S 7 9 4 5 1016.5 1015.9 0.0
25/08:00pm 25.5 23.8 9.7 37 8.7 S 9 9 5 5 1016.2 1015.6 0.0
25/07:30pm 27.1 24.5 9.5 33 9.8 S 13 17 7 9 1016.0 1015.4 0.0
25/07:00pm 28.0 26.2 9.3 31 10.4 SSE 9 15 5 8 1016.0 1015.4 0.0
25/06:30pm 28.4 26.2 9.2 30 10.7 SSW 11 22 6 12 1015.8 1015.2 0.0
25/06:00pm 28.7 26.8 8.9 29 11.0 SW 9 17 5 9 1015.8 1015.2 0.0
25/05:30pm 28.0 25.4 9.3 31 10.4 SSE 13 20 7 11 1015.9 1015.3 0.0
25/05:00pm 29.0 26.8 9.2 29 11.1 SW 11 19 6 10 1015.9 1015.3 0.0
25/04:30pm 28.4 26.8 8.1 28 11.1 SE 6 13 3 7 1016.4 1015.8 0.0
25/04:00pm 28.0 25.9 8.3 29 10.8 N 9 15 5 8 1016.7 1016.1 0.0
25/03:30pm 27.9 25.9 8.7 30 10.6 SE 9 19 5 10 1017.1 1016.5 0.0
25/03:00pm 26.8 24.7 8.3 31 10.1 SSE 9 15 5 8 1017.4 1016.8 0.0
25/02:30pm 27.4 25.8 8.8 31 10.2 S 7 20 4 11 1017.8 1017.2 0.0
25/02:00pm 26.7 23.9 8.6 32 9.9 WNW 13 19 7 10 1018.1 1017.5 0.0
25/01:30pm 26.5 25.2 9.8 35 9.3 S 7 15 4 8 1018.5 1017.8 0.0
25/01:00pm 26.0 23.3 8.9 34 9.3 ENE 13 19 7 10 1018.9 1018.2 0.0
25/12:30pm 24.6 21.7 8.1 35 8.8 SE 13 20 7 11 1019.3 1018.7 0.0
25/12:00pm 24.3 21.2 7.4 34 8.9 SSE 13 19 7 10 1019.7 1019.1 0.0
25/11:30am 24.0 21.1 8.0 36 8.5 ESE 13 20 7 11 1020.2 1019.6 0.0
25/11:00am 22.2 19.0 6.8 37 7.9 SE 13 20 7 11 1020.5 1019.9 0.0
25/10:30am 21.3 17.4 7.2 40 7.3 SE 17 24 9 13 1020.6 1020.0 0.0
25/10:00am 19.9 16.3 6.6 42 6.7 SSE 15 20 8 11 1020.9 1020.3 0.0
25/09:30am 19.2 15.1 6.3 43 6.5 SSE 17 24 9 13 1020.8 1020.2 0.0
25/09:00am 17.5 13.2 7.0 50 5.3 SSE 19 24 10 13 1020.6 1020.0 0.0
25/08:30am 16.0 12.9 7.2 56 4.4 S 13 19 7 10 1020.4 1019.8 0.0
25/08:00am 14.0 12.0 7.3 64 3.3 S 7 11 4 6 1020.1 1019.5 0.0
25/07:30am 11.2 9.0 7.7 79 1.7 SSW 9 11 5 6 1020.0 1019.4 0.0
25/07:00am 11.2 8.8 7.1 76 2.0 SSW 9 13 5 7 1019.9 1019.3 0.0
25/06:30am 11.6 9.6 6.9 73 2.3 S 7 11 4 6 1019.7 1019.1 0.0
25/06:00am 12.1 9.7 6.8 70 2.5 S 9 11 5 6 1019.5 1018.9 0.0
25/05:30am 13.0 10.2 7.0 67 2.9 S 11 15 6 8 1019.4 1018.8 0.0
25/05:00am 13.1 9.9 6.9 66 3.0 S 13 17 7 9 1019.2 1018.6 0.0
25/04:30am 13.6 10.0 6.9 64 3.3 S 15 19 8 10 1018.9 1018.2 0.0
25/04:00am 13.8 10.7 7.1 64 3.3 S 13 17 7 9 1018.9 1018.2 0.0
25/03:30am 13.7 11.0 7.2 65 3.2 S 11 13 6 7 1018.8 1018.1 0.0
25/03:00am 14.1 11.0 7.4 64 3.3 S 13 15 7 8 1018.8 1018.1 0.0
25/02:30am 14.0 11.7 7.3 64 3.3 S 9 13 5 7 1018.9 1018.2 0.0
25/02:00am 14.8 12.1 7.4 61 3.7 SSW 11 17 6 9 1019.1 1018.5 0.0
25/01:30am 15.5 12.5 7.5 59 4.0 SSW 13 17 7 9 1019.0 1018.3 0.0
25/01:00am 15.5 12.6 8.0 61 3.8 SSW 13 17 7 9 1019.1 1018.5 0.0
25/12:30am 15.6 12.2 7.6 59 4.0 SW 15 19 8 10 1019.1 1018.5 0.0
25/12:00am 16.4 13.1 7.9 57 4.3 SW 15 20 8 11 1019.1 1018.5 0.0
 
Date/Time
EDT
Temp
°C
App
Temp
°C
Dew
Point
°C
Rel
Hum
%
Delta-T
°C
Wind Press
QNH
hPa
Press
MSL
hPa
Rain since
9am
mm
Dir  Spd
km/h
Gust
km/h
Spd
kts
Gust
kts
24/11:30pm 16.9 13.5 7.8 55 4.6 SW 15 19 8 10 1019.1 1018.5 0.0
24/11:00pm 18.1 14.1 8.1 52 5.1 SW 19 26 10 14 1019.2 1018.6 0.0
24/10:30pm 18.7 15.4 8.1 50 5.5 SW 15 20 8 11 1019.2 1018.6 0.0
24/10:00pm 19.7 15.4 7.8 46 6.1 SW 20 26 11 14 1019.0 1018.3 0.0
24/09:30pm 20.3 16.5 7.7 44 6.5 WSW 17 24 9 13 1019.0 1018.3 0.0
24/09:00pm 20.9 16.5 7.5 42 6.9 WSW 20 30 11 16 1018.5 1017.8 0.0
24/08:30pm 21.6 16.0 7.1 39 7.5 SW 26 35 14 19 1018.1 1017.5 0.0
24/08:00pm 22.8 17.5 7.0 36 8.2 SW 24 35 13 19 1017.8 1017.2 0.0
24/07:30pm 24.6 19.5 7.7 34 9.0 SW 24 33 13 18 1017.5 1016.9 0.0
24/07:00pm 26.6 20.5 8.1 31 10.0 SW 30 37 16 20 1017.3 1016.7 0.0
24/06:30pm 28.1 21.9 7.9 28 11.0 SW 30 39 16 21 1017.0 1016.4 0.0
24/06:00pm 28.8 22.7 6.8 25 11.8 SW 28 37 15 20 1016.9 1016.3 0.0
24/05:30pm 30.0 23.5 4.6 20 13.2 WSW 28 37 15 20 1016.9 1016.3 0.0
24/05:00pm 30.6 23.7 0.1 14 14.7 WSW 26 37 14 20 1016.9 1016.3 0.0
24/04:30pm 30.7 25.0 2.9 17 14.1 WSW 22 35 12 19 1017.0 1016.4 0.0
24/04:00pm 31.1 24.7 3.2 17 14.2 SW 26 37 14 20 1017.2 1016.6 0.0
24/03:30pm 30.9 25.5 4.6 19 13.8 SW 22 30 12 16 1017.5 1016.9 0.0
24/03:00pm 30.6 26.0 5.8 21 13.2 WSW 19 30 10 16 1017.8 1017.2 0.0
24/02:30pm 29.7 25.0 5.1 21 12.9 WSW 19 28 10 15 1018.2 1017.6 0.0
24/02:00pm 29.0 23.7 3.1 19 13.0 WSW 20 32 11 17 1018.8 1018.1 0.0
24/01:30pm 29.0 23.7 5.1 22 12.5 WSW 22 35 12 19 1019.0 1018.3 0.0
24/01:00pm 27.7 25.0 7.5 28 10.9 W 11 26 6 14 1019.3 1018.7 0.0
24/12:30pm 27.6 25.5 9.9 33 9.9 WSW 11 20 6 11 1019.8 1019.2 0.0
24/12:00pm 26.8 24.7 9.6 34 9.5 WNW 11 20 6 11 1020.0 1019.4 0.0
24/11:30am 25.8 24.6 10.4 38 8.6 W 7 17 4 9 1020.3 1019.7 0.0
24/11:00am 24.6 23.4 11.5 44 7.4 SSW 9 15 5 8 1020.5 1019.9 0.0
24/10:30am 23.6 22.5 12.0 48 6.6 WSW 9 15 5 8 1020.6 1020.0 0.0
24/10:00am 22.2 20.8 12.2 53 5.7 SSW 11 15 6 8 1020.6 1020.0 0.0
24/09:30am 21.0 20.0 12.4 58 4.9 SSW 9 15 5 8 1020.5 1019.9 0.0
24/09:00am 19.9 18.1 12.2 61 4.3 SSW 13 19 7 10 1020.4 1019.8 0.0
24/08:30am 18.1 16.9 12.8 71 3.0 SSW 11 15 6 8 1020.2 1019.6 0.0
24/08:00am 16.0 16.8 12.4 79 2.0 CALM 0 0 0 0 1019.9 1019.3 0.0
24/07:30am 11.9 11.2 10.0 88 1.0 SSE 4 7 2 4 1019.8 1019.2 0.0
24/07:00am 12.5 11.4 10.0 85 1.3 SE 6 7 3 4 1019.4 1018.8 0.0
24/06:30am 13.0 12.0 10.9 87 1.1 SE 7 7 4 4 1019.0 1018.3 0.0
24/06:00am 12.1 10.9 9.7 85 1.2 S 6 9 3 5 1019.0 1018.3 0.0
24/05:30am 12.9 11.5 9.5 80 1.7 SW 7 11 4 6 1018.5 1017.8 0.0
24/05:00am 14.3 13.3 11.1 81 1.7 SSE 7 9 4 5 1018.1 1017.5 0.0
24/04:30am 13.9 13.0 10.7 81 1.7 SE 6 9 3 5 1018.0 1017.4 0.0
24/04:00am 14.2 12.5 10.0 76 2.2 SE 9 11 5 6 1017.9 1017.3 0.0
24/03:30am 14.3 12.9 9.5 73 2.5 SE 7 9 4 5 1018.0 1017.4 0.0
24/03:00am 14.5 14.3 9.1 70 2.8 CALM 0 0 0 0 1018.1 1017.5 0.0
24/02:30am 16.2 14.4 9.6 65 3.5 S 9 11 5 6 1017.9 1017.3 0.0
24/02:00am 15.2 13.9 9.1 67 3.1 SSE 6 7 3 4 1017.9 1017.3 0.0
24/01:30am 15.7 14.3 8.7 63 3.6 SSE 6 7 3 4 1018.0 1017.4 0.0
24/01:00am 16.2 14.6 8.9 62 3.8 SSE 7 7 4 4 1018.0 1017.4 0.0
24/12:30am 17.1 14.9 8.0 55 4.7 SSE 9 9 5 5 1017.9 1017.3 0.0
24/12:00am 18.6 16.6 8.6 52 5.2 S 9 13 5 7 1017.8 1017.2 0.0
 
Date/Time
EDT
Temp
°C
App
Temp
°C
Dew
Point
°C
Rel
Hum
%
Delta-T
°C
Wind Press
QNH
hPa
Press
MSL
hPa
Rain since
9am
mm
Dir  Spd
km/h
Gust
km/h
Spd
kts
Gust
kts
23/11:30pm 18.0 16.5 8.6 54 4.9 SSE 6 7 3 4 1017.6 1017.0 0.0
23/11:00pm 18.2 16.8 7.3 49 5.5 SSE 4 11 2 6 1017.7 1017.1 0.0
23/10:30pm 20.4 19.6 6.4 40 7.1 CALM 0 0 0 0 1017.6 1017.0 0.0
23/10:00pm 22.9 19.7 5.3 32 8.9 W 11 13 6 7 1017.5 1016.9 0.0
23/09:30pm 24.1 21.8 5.0 29 9.6 WNW 6 9 3 5 1017.4 1016.8 0.0
23/09:00pm 25.0 22.6 5.2 28 10.1 WNW 7 9 4 5 1017.0 1016.4 0.0
23/08:30pm 25.2 22.0 4.9 27 10.3 W 11 13 6 7 1016.7 1016.1 0.0
23/08:00pm 28.1 24.4 4.4 22 12.1 WSW 13 19 7 10 1016.4 1015.8 0.0
23/07:30pm 29.9 25.2 3.0 18 13.6 WSW 17 22 9 12 1016.2 1015.6 0.0
23/07:00pm 31.0 25.7 3.1 17 14.2 WSW 20 26 11 14 1016.0 1015.4 0.0
23/06:30pm 31.7 26.1 3.7 17 14.5 WSW 22 32 12 17 1015.8 1015.2 0.0
23/06:00pm 32.4 27.7 3.4 16 15.0 W 17 28 9 15 1015.5 1014.9 0.0
23/05:30pm 32.8 27.1 2.8 15 15.4 W 22 37 12 20 1015.4 1014.8 0.0
23/05:00pm 33.4 28.2 3.3 15 15.6 W 20 32 11 17 1015.3 1014.7 0.0
23/04:30pm 34.7 29.6 3.3 14 16.4 W 19 28 10 15 1015.3 1014.7 0.0
23/04:00pm 34.1 27.5 1.8 13 16.4 W 26 35 14 19 1015.3 1014.7 0.0
23/03:30pm 34.2 28.5 0.8 12 16.7 W 20 32 11 17 1015.5 1014.9 0.0
23/03:00pm 34.3 28.3 0.8 12 16.8 W 22 33 12 18 1015.7 1015.1 0.0
23/02:30pm 33.8 28.7 0.5 12 16.6 WNW 17 30 9 16 1015.8 1015.2 0.0
23/02:00pm 33.2 28.4 0.0 12 16.3 WNW 15 30 8 16 1016.0 1015.4 0.0
23/01:30pm 33.1 29.0 -0.1 12 16.3 NW 11 30 6 16 1016.1 1015.5 0.0
23/01:00pm 30.9 27.3 3.0 17 14.2 N 11 20 6 11 1016.3 1015.7 0.0
23/12:30pm 30.2 25.8 4.8 20 13.3 NNW 17 24 9 13 1016.5 1015.9 0.0
23/12:00pm 29.2 25.4 4.0 20 12.9 NNE 13 22 7 12 1016.7 1016.1 0.0
23/11:30am 28.0 24.8 5.0 23 11.9 N 11 19 6 10 1016.8 1016.2 0.0
23/11:00am 26.7 24.2 4.5 24 11.3 N 7 17 4 9 1016.8 1016.2 0.0
23/10:30am 25.6 23.7 4.7 26 10.6 NNE 4 9 2 5 1016.8 1016.2 0.0
23/10:00am 24.9 23.2 6.1 30 9.7 NE 4 7 2 4 1016.5 1015.9 0.0
23/09:30am 22.9 20.9 6.2 34 8.6 S 6 9 3 5 1016.5 1015.9 0.0
23/09:00am 21.0 19.3 7.6 42 7.0 SSE 6 7 3 4 1016.3 1015.7 0.0
23/08:30am 19.1 18.6 7.8 48 5.8 CALM 0 0 0 0 1015.9 1015.3 0.0
23/08:00am 16.5 15.6 7.7 56 4.4 SSW 2 7 1 4 1015.6 1015.0 0.0
23/07:30am 13.7 12.1 8.1 69 2.8 ESE 6 7 3 4 1015.2 1014.6 0.0
23/07:00am 13.0 11.2 7.0 67 2.9 ESE 6 9 3 5 1014.6 1014.0 0.0
23/06:30am 13.6 11.6 6.9 64 3.3 SW 7 9 4 5 1014.1 1013.5 0.0
23/06:00am 14.1 12.7 7.2 63 3.4 SSE 4 9 2 5 1013.8 1013.2 0.0
23/05:30am 15.0 14.5 8.0 63 3.5 CALM 0 6 0 3 1013.6 1013.0 0.0
23/05:00am 15.3 13.3 6.3 55 4.4 ESE 6 9 3 5 1013.2 1012.5 0.0
23/04:30am 16.8 14.4 6.9 52 4.9 ESE 9 19 5 10 1012.9 1012.2 0.0
23/04:00am 17.7 15.0 5.6 45 5.9 ENE 9 11 5 6 1012.5 1011.8 0.0
23/03:30am 19.3 16.3 4.3 37 7.2 NNE 9 11 5 6 1012.2 1011.5 0.0
23/03:00am 20.3 17.1 7.0 42 6.8 W 13 20 7 11 1012.3 1011.6 0.0
23/02:30am 15.8 13.9 6.8 55 4.5 E 6 7 3 4 1011.8 1011.1 0.0
23/02:00am 20.1 16.7 3.8 34 7.8 N 11 17 6 9 1012.0 1011.3 0.0
23/01:59am 19.9 16.4 3.6 34 7.8 N 11 17 6 9 1012.0 1011.3 0.0
23/01:30am 25.1 20.2 1.9 22 11.1 NNW 17 24 9 13 1012.2 1011.5 0.0
23/01:00am 24.1 20.1 2.9 25 10.3 N 13 19 7 10 1012.3 1011.6 0.0
23/12:30am 22.7 18.9 3.8 29 9.2 N 13 17 7 9 1012.5 1011.8 0.0
23/12:00am 20.3 17.4 4.8 36 7.6 NNW 9 13 5 7 1012.5 1011.8 0.0
 
Date/Time
EDT
Temp
°C
App
Temp
°C
Dew
Point
°C
Rel
Hum
%
Delta-T
°C
Wind Press
QNH
hPa
Press
MSL
hPa
Rain since
9am
mm
Dir  Spd
km/h
Gust
km/h
Spd
kts
Gust
kts
22/11:30pm 19.9 18.2 5.9 40 7.0 N 4 9 2 5 1012.6 1011.9 0.0
22/11:00pm 20.7 18.9 5.5 37 7.6 NNW 4 6 2 3 1012.6 1011.9 0.0
22/10:30pm 21.8 19.5 4.8 33 8.4 N 6 9 3 5 1012.4 1011.7 0.0

Other Formats:

Comma delimited format used in spreadsheet applications
http://www.bom.gov.au/fwo/IDV60801/IDV60801.94889.axf

JavaScript Object Notation format (JSON) in row-major order
http://www.bom.gov.au/fwo/IDV60801/IDV60801.94889.json